Decoded Metar for LFPG (PARIS CHARLES DE GAULLE in FRANCE) (IATA:CDG) | Meteo·Mobile Aviation Weather
aviador You're here:

LFPG Decoded Metar

PARIS CHARLES DE GAULLE in FRANCE
Report Time2019-10-22 21:00:00
UTC Time2019-10-22 21:12:07
Flight Rules vfr VFR
Wind030° at 08 kt
W.Decomp.*RWY 08: 5.2 kt HW 6 kt LCW
RWY 09: 4.1 kt HW 6.9 kt LCW
Visibility9999 m
Phenomena:N/A
Clouds:N/A
Expected CloudBase > 400 ft AGL from Temp-Dew spread
CeilingNone
Temp10°C (ISA -4)
Dew Point09°C (94% RH)
AAT6.9°C
QNH1021 hPa
Density Alt-269 ft
Elevation358 ft
Report Wrong Elevation
Raw Report
LFPG 222100Z 03008KT 350V060 CAVOK 10/09 Q1021 NOSIG=

Extra information for LFPG:More info

Metar Taf Metar & Taf Last 4 Metars F.Rules Stats Wind Profile Meteogram Temp Stats Airport Information Weather charts Add Link Nearby VenuesMetar ALERT Operation Metar Decoded Social comments